Japan Airlines Virtual Airport Information Service

Hiroshima Airport

ICAO: RJOA Country: Japan
Latitude: 34.4361 Longitude: 132.919
Latest Arrival : JAL259 (RJTT-RJOA) Latest Departure : JAL111 (RJOA-RJAA)


WX CaptureLIVE
Data provided by noaa.gov | Fetched at 13:52:31

METAR : RJOA 281318Z 29020G31KT 9999 -SHRA FEW020 BKN040 06/M03 Q1008 RMK 1CU020 6CU040 A2978

TAF : RJOA 281110Z 2812/2918 29020KT 9000 -SHSNRA FEW015 SCT025 BKN035 TEMPO 2812/2818 29021G32KT TEMPO 2900/2909 29019G29KT BECMG 2909/2912 32004KT


Runway Data for RJOA
Data provided by openaviationdata.com

Runway ID Mag Var Hdg Length Elevation Surface ILS Freq ILS Id ILS Slope
10 -7 97° 9831 ft 1052 ft Asphalt 108.7 IHG 3
28 -7 277° 9831 ft 1052 ft Asphalt -- -- --

Hiroshima Airport, Japan
Use only for reference purposes



Not for navigational purposes.